sensor_id;sensor_type;location;lat;lon;timestamp;P1;durP1;ratioP1;P2;durP2;ratioP2
28335;SDS011;15592;53.656;7.276;2023-04-15T00:01:58;26.30;;;16.23;;
28335;SDS011;15592;53.656;7.276;2023-04-15T00:04:24;25.08;;;15.77;;
28335;SDS011;15592;53.656;7.276;2023-04-15T00:06:51;24.98;;;15.45;;
28335;SDS011;15592;53.656;7.276;2023-04-15T00:09:18;23.65;;;15.23;;
28335;SDS011;15592;53.656;7.276;2023-04-15T00:11:44;22.88;;;14.48;;
28335;SDS011;15592;53.656;7.276;2023-04-15T00:14:10;25.02;;;15.15;;
28335;SDS011;15592;53.656;7.276;2023-04-15T00:16:37;22.10;;;14.00;;
28335;SDS011;15592;53.656;7.276;2023-04-15T00:19:03;21.35;;;13.85;;
28335;SDS011;15592;53.656;7.276;2023-04-15T00:21:29;20.05;;;13.18;;
28335;SDS011;15592;53.656;7.276;2023-04-15T00:23:54;23.27;;;14.45;;
28335;SDS011;15592;53.656;7.276;2023-04-15T00:26:20;18.88;;;12.32;;
28335;SDS011;15592;53.656;7.276;2023-04-15T00:28:46;19.92;;;12.63;;
28335;SDS011;15592;53.656;7.276;2023-04-15T00:31:12;18.92;;;11.80;;
28335;SDS011;15592;53.656;7.276;2023-04-15T00:33:38;17.92;;;11.07;;
28335;SDS011;15592;53.656;7.276;2023-04-15T00:36:05;16.98;;;11.07;;
28335;SDS011;15592;53.656;7.276;2023-04-15T00:38:31;15.30;;;9.85;;
28335;SDS011;15592;53.656;7.276;2023-04-15T00:40:57;18.63;;;10.70;;
28335;SDS011;15592;53.656;7.276;2023-04-15T00:43:23;13.48;;;9.48;;
28335;SDS011;15592;53.656;7.276;2023-04-15T00:45:50;14.70;;;9.80;;
28335;SDS011;15592;53.656;7.276;2023-04-15T00:48:17;14.15;;;9.07;;
28335;SDS011;15592;53.656;7.276;2023-04-15T00:50:44;13.75;;;9.18;;
28335;SDS011;15592;53.656;7.276;2023-04-15T00:53:09;12.40;;;9.05;;
28335;SDS011;15592;53.656;7.276;2023-04-15T00:55:35;13.10;;;8.35;;
28335;SDS011;15592;53.656;7.276;2023-04-15T00:58:02;11.70;;;8.55;;
28335;SDS011;15592;53.656;7.276;2023-04-15T01:00:27;11.73;;;8.02;;
28335;SDS011;15592;53.656;7.276;2023-04-15T01:02:54;13.13;;;8.07;;
28335;SDS011;15592;53.656;7.276;2023-04-15T01:05:20;12.60;;;7.75;;
28335;SDS011;15592;53.656;7.276;2023-04-15T01:07:45;9.55;;;6.57;;
28335;SDS011;15592;53.656;7.276;2023-04-15T01:10:12;11.00;;;6.78;;
28335;SDS011;15592;53.656;7.276;2023-04-15T01:12:38;9.50;;;6.57;;
28335;SDS011;15592;53.656;7.276;2023-04-15T01:15:04;9.80;;;7.20;;
28335;SDS011;15592;53.656;7.276;2023-04-15T01:17:30;10.52;;;7.35;;
28335;SDS011;15592;53.656;7.276;2023-04-15T01:19:56;9.93;;;6.85;;
28335;SDS011;15592;53.656;7.276;2023-04-15T01:22:23;8.02;;;6.15;;
28335;SDS011;15592;53.656;7.276;2023-04-15T01:24:54;9.05;;;6.70;;
28335;SDS011;15592;53.656;7.276;2023-04-15T01:27:26;9.10;;;6.25;;
28335;SDS011;15592;53.656;7.276;2023-04-15T01:29:52;8.13;;;5.97;;
28335;SDS011;15592;53.656;7.276;2023-04-15T01:32:18;8.93;;;5.60;;
28335;SDS011;15592;53.656;7.276;2023-04-15T01:34:43;7.93;;;5.85;;
28335;SDS011;15592;53.656;7.276;2023-04-15T01:37:09;9.45;;;6.35;;
28335;SDS011;15592;53.656;7.276;2023-04-15T01:39:35;6.85;;;5.43;;
28335;SDS011;15592;53.656;7.276;2023-04-15T01:42:01;9.73;;;6.00;;
28335;SDS011;15592;53.656;7.276;2023-04-15T01:44:27;6.43;;;5.15;;
28335;SDS011;15592;53.656;7.276;2023-04-15T01:46:52;7.57;;;5.60;;
28335;SDS011;15592;53.656;7.276;2023-04-15T01:49:18;7.22;;;5.60;;
28335;SDS011;15592;53.656;7.276;2023-04-15T01:51:44;7.57;;;5.60;;
28335;SDS011;15592;53.656;7.276;2023-04-15T01:54:09;6.97;;;5.70;;
28335;SDS011;15592;53.656;7.276;2023-04-15T01:56:35;8.13;;;5.90;;
28335;SDS011;15592;53.656;7.276;2023-04-15T01:59:00;6.68;;;5.18;;
28335;SDS011;15592;53.656;7.276;2023-04-15T02:01:27;7.60;;;5.88;;
28335;SDS011;15592;53.656;7.276;2023-04-15T02:03:53;7.63;;;5.53;;
28335;SDS011;15592;53.656;7.276;2023-04-15T02:06:18;6.55;;;5.35;;
28335;SDS011;15592;53.656;7.276;2023-04-15T02:08:45;7.25;;;5.13;;
28335;SDS011;15592;53.656;7.276;2023-04-15T02:11:10;6.25;;;5.07;;
28335;SDS011;15592;53.656;7.276;2023-04-15T02:13:36;6.82;;;5.22;;
28335;SDS011;15592;53.656;7.276;2023-04-15T02:16:02;6.88;;;5.28;;
28335;SDS011;15592;53.656;7.276;2023-04-15T02:18:28;8.52;;;6.10;;
28335;SDS011;15592;53.656;7.276;2023-04-15T02:20:53;9.90;;;7.00;;
28335;SDS011;15592;53.656;7.276;2023-04-15T02:23:21;10.57;;;7.03;;
28335;SDS011;15592;53.656;7.276;2023-04-15T02:25:46;11.35;;;8.43;;
28335;SDS011;15592;53.656;7.276;2023-04-15T02:28:12;10.95;;;7.78;;
28335;SDS011;15592;53.656;7.276;2023-04-15T02:30:37;12.88;;;8.30;;
28335;SDS011;15592;53.656;7.276;2023-04-15T02:33:04;12.77;;;8.02;;
28335;SDS011;15592;53.656;7.276;2023-04-15T02:35:31;11.73;;;8.23;;
28335;SDS011;15592;53.656;7.276;2023-04-15T02:37:57;10.00;;;7.25;;
28335;SDS011;15592;53.656;7.276;2023-04-15T02:40:22;10.88;;;7.25;;
28335;SDS011;15592;53.656;7.276;2023-04-15T02:42:48;13.50;;;8.20;;
28335;SDS011;15592;53.656;7.276;2023-04-15T02:45:13;11.95;;;8.07;;
28335;SDS011;15592;53.656;7.276;2023-04-15T02:47:39;11.48;;;7.93;;
28335;SDS011;15592;53.656;7.276;2023-04-15T02:50:09;12.10;;;7.80;;
28335;SDS011;15592;53.656;7.276;2023-04-15T02:52:38;12.52;;;8.38;;
28335;SDS011;15592;53.656;7.276;2023-04-15T02:55:05;14.15;;;8.52;;
28335;SDS011;15592;53.656;7.276;2023-04-15T02:57:31;17.40;;;9.55;;
28335;SDS011;15592;53.656;7.276;2023-04-15T02:59:56;18.63;;;11.65;;
28335;SDS011;15592;53.656;7.276;2023-04-15T03:02:22;16.63;;;10.23;;
28335;SDS011;15592;53.656;7.276;2023-04-15T03:04:48;17.30;;;11.15;;
28335;SDS011;15592;53.656;7.276;2023-04-15T03:07:13;20.63;;;12.35;;
28335;SDS011;15592;53.656;7.276;2023-04-15T03:09:39;17.45;;;11.00;;
28335;SDS011;15592;53.656;7.276;2023-04-15T03:12:05;20.35;;;11.23;;
28335;SDS011;15592;53.656;7.276;2023-04-15T03:14:31;23.08;;;13.15;;
28335;SDS011;15592;53.656;7.276;2023-04-15T03:16:56;26.42;;;14.75;;
28335;SDS011;15592;53.656;7.276;2023-04-15T03:19:23;27.73;;;15.70;;
28335;SDS011;15592;53.656;7.276;2023-04-15T03:21:49;25.75;;;14.90;;
28335;SDS011;15592;53.656;7.276;2023-04-15T03:24:16;31.13;;;16.77;;
28335;SDS011;15592;53.656;7.276;2023-04-15T03:26:41;28.42;;;17.02;;
28335;SDS011;15592;53.656;7.276;2023-04-15T03:29:07;30.70;;;17.20;;
28335;SDS011;15592;53.656;7.276;2023-04-15T03:31:33;36.55;;;18.75;;
28335;SDS011;15592;53.656;7.276;2023-04-15T03:33:58;33.55;;;18.33;;
28335;SDS011;15592;53.656;7.276;2023-04-15T03:36:24;31.30;;;18.05;;
28335;SDS011;15592;53.656;7.276;2023-04-15T03:38:50;35.58;;;18.50;;
28335;SDS011;15592;53.656;7.276;2023-04-15T03:41:15;36.35;;;19.20;;
28335;SDS011;15592;53.656;7.276;2023-04-15T03:43:41;33.40;;;18.15;;
28335;SDS011;15592;53.656;7.276;2023-04-15T03:46:07;29.45;;;17.23;;
28335;SDS011;15592;53.656;7.276;2023-04-15T03:48:32;31.90;;;14.90;;
28335;SDS011;15592;53.656;7.276;2023-04-15T03:50:58;26.27;;;15.07;;
28335;SDS011;15592;53.656;7.276;2023-04-15T03:53:23;24.48;;;13.25;;
28335;SDS011;15592;53.656;7.276;2023-04-15T03:55:49;21.27;;;13.07;;
28335;SDS011;15592;53.656;7.276;2023-04-15T03:58:15;24.60;;;14.00;;
28335;SDS011;15592;53.656;7.276;2023-04-15T04:00:40;24.33;;;13.70;;
28335;SDS011;15592;53.656;7.276;2023-04-15T04:03:06;23.45;;;14.00;;
28335;SDS011;15592;53.656;7.276;2023-04-15T04:05:32;24.38;;;13.32;;
28335;SDS011;15592;53.656;7.276;2023-04-15T04:07:57;23.08;;;13.05;;
28335;SDS011;15592;53.656;7.276;2023-04-15T04:10:23;26.25;;;13.57;;
28335;SDS011;15592;53.656;7.276;2023-04-15T04:12:49;23.88;;;13.40;;
28335;SDS011;15592;53.656;7.276;2023-04-15T04:15:14;32.50;;;14.77;;
28335;SDS011;15592;53.656;7.276;2023-04-15T04:17:40;29.23;;;15.30;;
28335;SDS011;15592;53.656;7.276;2023-04-15T04:20:06;26.75;;;15.85;;
28335;SDS011;15592;53.656;7.276;2023-04-15T04:22:36;28.02;;;16.70;;
28335;SDS011;15592;53.656;7.276;2023-04-15T04:25:03;34.08;;;17.80;;
28335;SDS011;15592;53.656;7.276;2023-04-15T04:27:29;32.20;;;18.60;;
28335;SDS011;15592;53.656;7.276;2023-04-15T04:29:55;30.30;;;17.35;;
28335;SDS011;15592;53.656;7.276;2023-04-15T04:32:20;33.22;;;17.08;;
28335;SDS011;15592;53.656;7.276;2023-04-15T04:34:46;31.60;;;17.60;;
28335;SDS011;15592;53.656;7.276;2023-04-15T04:37:12;31.88;;;17.33;;
28335;SDS011;15592;53.656;7.276;2023-04-15T04:39:38;27.33;;;14.63;;
28335;SDS011;15592;53.656;7.276;2023-04-15T04:42:04;27.83;;;14.38;;
28335;SDS011;15592;53.656;7.276;2023-04-15T04:44:29;28.00;;;13.88;;
28335;SDS011;15592;53.656;7.276;2023-04-15T04:46:55;22.33;;;12.68;;
28335;SDS011;15592;53.656;7.276;2023-04-15T04:49:21;20.33;;;12.73;;
28335;SDS011;15592;53.656;7.276;2023-04-15T04:51:46;23.38;;;12.13;;
28335;SDS011;15592;53.656;7.276;2023-04-15T04:54:12;23.58;;;12.35;;
28335;SDS011;15592;53.656;7.276;2023-04-15T04:56:38;21.00;;;11.30;;
28335;SDS011;15592;53.656;7.276;2023-04-15T04:59:04;25.30;;;12.63;;
28335;SDS011;15592;53.656;7.276;2023-04-15T05:01:31;20.40;;;11.65;;
28335;SDS011;15592;53.656;7.276;2023-04-15T05:03:56;23.95;;;12.88;;
28335;SDS011;15592;53.656;7.276;2023-04-15T05:06:22;23.45;;;12.15;;
28335;SDS011;15592;53.656;7.276;2023-04-15T05:08:47;20.42;;;11.80;;
28335;SDS011;15592;53.656;7.276;2023-04-15T05:11:13;18.40;;;11.35;;
28335;SDS011;15592;53.656;7.276;2023-04-15T05:13:39;20.02;;;10.23;;
28335;SDS011;15592;53.656;7.276;2023-04-15T05:16:04;18.70;;;11.93;;
28335;SDS011;15592;53.656;7.276;2023-04-15T05:18:30;18.30;;;10.23;;
28335;SDS011;15592;53.656;7.276;2023-04-15T05:20:56;19.58;;;10.65;;
28335;SDS011;15592;53.656;7.276;2023-04-15T05:23:22;20.92;;;10.70;;
28335;SDS011;15592;53.656;7.276;2023-04-15T05:25:47;22.95;;;11.23;;
28335;SDS011;15592;53.656;7.276;2023-04-15T05:28:13;15.65;;;10.18;;
28335;SDS011;15592;53.656;7.276;2023-04-15T05:30:38;16.08;;;10.10;;
28335;SDS011;15592;53.656;7.276;2023-04-15T05:33:04;18.20;;;10.85;;
28335;SDS011;15592;53.656;7.276;2023-04-15T05:35:30;18.95;;;10.52;;
28335;SDS011;15592;53.656;7.276;2023-04-15T05:37:55;19.92;;;11.65;;
28335;SDS011;15592;53.656;7.276;2023-04-15T05:40:21;22.75;;;12.73;;
28335;SDS011;15592;53.656;7.276;2023-04-15T05:42:47;18.00;;;11.68;;
28335;SDS011;15592;53.656;7.276;2023-04-15T05:45:13;19.55;;;11.43;;
28335;SDS011;15592;53.656;7.276;2023-04-15T05:47:38;22.08;;;11.50;;
28335;SDS011;15592;53.656;7.276;2023-04-15T05:50:04;22.40;;;12.32;;
28335;SDS011;15592;53.656;7.276;2023-04-15T05:52:30;18.92;;;11.25;;
28335;SDS011;15592;53.656;7.276;2023-04-15T05:54:56;15.55;;;9.88;;
28335;SDS011;15592;53.656;7.276;2023-04-15T05:57:22;19.42;;;11.40;;
28335;SDS011;15592;53.656;7.276;2023-04-15T05:59:48;18.73;;;11.23;;
28335;SDS011;15592;53.656;7.276;2023-04-15T06:02:16;15.57;;;9.32;;
28335;SDS011;15592;53.656;7.276;2023-04-15T06:04:41;16.77;;;9.75;;
28335;SDS011;15592;53.656;7.276;2023-04-15T06:07:07;15.88;;;9.02;;
28335;SDS011;15592;53.656;7.276;2023-04-15T06:09:33;16.50;;;8.30;;
28335;SDS011;15592;53.656;7.276;2023-04-15T06:11:59;12.00;;;8.05;;
28335;SDS011;15592;53.656;7.276;2023-04-15T06:14:25;14.85;;;7.80;;
28335;SDS011;15592;53.656;7.276;2023-04-15T06:16:51;14.20;;;8.18;;
28335;SDS011;15592;53.656;7.276;2023-04-15T06:19:17;14.00;;;8.10;;
28335;SDS011;15592;53.656;7.276;2023-04-15T06:21:43;14.85;;;7.88;;
28335;SDS011;15592;53.656;7.276;2023-04-15T06:24:10;12.18;;;7.53;;
28335;SDS011;15592;53.656;7.276;2023-04-15T06:26:35;11.50;;;7.63;;
28335;SDS011;15592;53.656;7.276;2023-04-15T06:29:01;12.65;;;6.47;;
28335;SDS011;15592;53.656;7.276;2023-04-15T06:31:27;11.70;;;6.78;;
28335;SDS011;15592;53.656;7.276;2023-04-15T06:33:52;14.27;;;7.35;;
28335;SDS011;15592;53.656;7.276;2023-04-15T06:36:18;15.05;;;7.47;;
28335;SDS011;15592;53.656;7.276;2023-04-15T06:38:44;12.88;;;7.68;;
28335;SDS011;15592;53.656;7.276;2023-04-15T06:41:09;17.42;;;8.30;;
28335;SDS011;15592;53.656;7.276;2023-04-15T06:43:35;15.70;;;8.70;;
28335;SDS011;15592;53.656;7.276;2023-04-15T06:46:00;17.15;;;9.20;;
28335;SDS011;15592;53.656;7.276;2023-04-15T06:48:26;18.10;;;9.73;;
28335;SDS011;15592;53.656;7.276;2023-04-15T06:50:52;15.27;;;8.65;;
28335;SDS011;15592;53.656;7.276;2023-04-15T06:53:17;18.02;;;8.93;;
28335;SDS011;15592;53.656;7.276;2023-04-15T06:55:43;17.60;;;7.78;;
28335;SDS011;15592;53.656;7.276;2023-04-15T06:58:08;13.35;;;7.82;;
28335;SDS011;15592;53.656;7.276;2023-04-15T07:00:34;12.85;;;7.43;;
28335;SDS011;15592;53.656;7.276;2023-04-15T07:03:02;9.50;;;6.47;;
28335;SDS011;15592;53.656;7.276;2023-04-15T07:05:29;14.18;;;7.00;;
28335;SDS011;15592;53.656;7.276;2023-04-15T07:07:55;14.02;;;7.57;;
28335;SDS011;15592;53.656;7.276;2023-04-15T07:10:21;15.10;;;7.90;;
28335;SDS011;15592;53.656;7.276;2023-04-15T07:12:47;15.07;;;7.97;;
28335;SDS011;15592;53.656;7.276;2023-04-15T07:15:12;13.30;;;8.10;;
28335;SDS011;15592;53.656;7.276;2023-04-15T07:17:39;16.90;;;7.72;;
28335;SDS011;15592;53.656;7.276;2023-04-15T07:20:05;16.48;;;8.32;;
28335;SDS011;15592;53.656;7.276;2023-04-15T07:22:32;19.83;;;8.63;;
28335;SDS011;15592;53.656;7.276;2023-04-15T07:24:58;20.17;;;8.95;;
28335;SDS011;15592;53.656;7.276;2023-04-15T07:27:23;17.42;;;8.38;;
28335;SDS011;15592;53.656;7.276;2023-04-15T07:29:50;16.13;;;8.25;;
28335;SDS011;15592;53.656;7.276;2023-04-15T07:32:16;19.02;;;7.47;;
28335;SDS011;15592;53.656;7.276;2023-04-15T07:34:42;11.95;;;7.22;;
28335;SDS011;15592;53.656;7.276;2023-04-15T07:37:08;18.02;;;7.68;;
28335;SDS011;15592;53.656;7.276;2023-04-15T07:39:34;13.82;;;7.10;;
28335;SDS011;15592;53.656;7.276;2023-04-15T07:41:59;17.90;;;7.57;;
28335;SDS011;15592;53.656;7.276;2023-04-15T07:44:26;15.68;;;7.45;;
28335;SDS011;15592;53.656;7.276;2023-04-15T07:46:52;15.98;;;7.55;;
28335;SDS011;15592;53.656;7.276;2023-04-15T07:49:17;12.43;;;6.38;;
28335;SDS011;15592;53.656;7.276;2023-04-15T07:51:45;17.05;;;6.78;;
28335;SDS011;15592;53.656;7.276;2023-04-15T07:54:10;14.40;;;6.60;;
28335;SDS011;15592;53.656;7.276;2023-04-15T07:56:36;14.27;;;6.38;;
28335;SDS011;15592;53.656;7.276;2023-04-15T07:59:02;17.95;;;6.68;;
28335;SDS011;15592;53.656;7.276;2023-04-15T08:01:29;15.55;;;6.57;;
28335;SDS011;15592;53.656;7.276;2023-04-15T08:03:55;14.45;;;5.85;;
28335;SDS011;15592;53.656;7.276;2023-04-15T08:06:21;17.48;;;6.10;;
28335;SDS011;15592;53.656;7.276;2023-04-15T08:08:47;11.73;;;5.88;;
28335;SDS011;15592;53.656;7.276;2023-04-15T08:11:13;12.82;;;6.18;;
28335;SDS011;15592;53.656;7.276;2023-04-15T08:13:38;16.65;;;6.80;;
28335;SDS011;15592;53.656;7.276;2023-04-15T08:16:23;17.70;;;5.45;;
28335;SDS011;15592;53.656;7.276;2023-04-15T08:18:51;16.80;;;5.03;;
28335;SDS011;15592;53.656;7.276;2023-04-15T08:21:19;13.25;;;5.35;;
28335;SDS011;15592;53.656;7.276;2023-04-15T08:23:46;14.05;;;4.78;;
28335;SDS011;15592;53.656;7.276;2023-04-15T08:26:14;14.30;;;4.90;;
28335;SDS011;15592;53.656;7.276;2023-04-15T08:28:40;14.60;;;5.00;;
28335;SDS011;15592;53.656;7.276;2023-04-15T08:31:06;14.68;;;5.38;;
28335;SDS011;15592;53.656;7.276;2023-04-15T08:33:33;16.90;;;5.05;;
28335;SDS011;15592;53.656;7.276;2023-04-15T08:35:58;16.00;;;5.65;;
28335;SDS011;15592;53.656;7.276;2023-04-15T08:38:24;10.38;;;5.35;;
28335;SDS011;15592;53.656;7.276;2023-04-15T08:40:50;11.73;;;4.63;;
28335;SDS011;15592;53.656;7.276;2023-04-15T08:43:22;20.55;;;5.35;;
28335;SDS011;15592;53.656;7.276;2023-04-15T08:45:52;16.10;;;5.55;;
28335;SDS011;15592;53.656;7.276;2023-04-15T08:48:19;16.27;;;5.60;;
28335;SDS011;15592;53.656;7.276;2023-04-15T08:50:45;11.43;;;5.50;;
28335;SDS011;15592;53.656;7.276;2023-04-15T08:53:12;14.02;;;5.78;;
28335;SDS011;15592;53.656;7.276;2023-04-15T08:55:42;18.02;;;6.15;;
28335;SDS011;15592;53.656;7.276;2023-04-15T08:58:09;15.25;;;6.05;;
28335;SDS011;15592;53.656;7.276;2023-04-15T09:00:36;17.92;;;5.38;;
28335;SDS011;15592;53.656;7.276;2023-04-15T09:03:03;15.52;;;4.82;;
28335;SDS011;15592;53.656;7.276;2023-04-15T09:05:37;16.80;;;5.70;;
28335;SDS011;15592;53.656;7.276;2023-04-15T09:08:03;14.63;;;5.35;;
28335;SDS011;15592;53.656;7.276;2023-04-15T09:10:30;12.13;;;5.00;;
28335;SDS011;15592;53.656;7.276;2023-04-15T09:12:56;12.50;;;4.57;;
28335;SDS011;15592;53.656;7.276;2023-04-15T09:15:23;13.73;;;4.70;;
28335;SDS011;15592;53.656;7.276;2023-04-15T09:17:49;9.98;;;4.13;;
28335;SDS011;15592;53.656;7.276;2023-04-15T09:20:15;13.00;;;4.95;;
28335;SDS011;15592;53.656;7.276;2023-04-15T09:22:43;13.57;;;5.15;;
28335;SDS011;15592;53.656;7.276;2023-04-15T09:27:55;17.63;;;4.57;;
28335;SDS011;15592;53.656;7.276;2023-04-15T09:30:26;14.63;;;5.18;;
28335;SDS011;15592;53.656;7.276;2023-04-15T09:35:19;14.80;;;4.72;;
28335;SDS011;15592;53.656;7.276;2023-04-15T09:37:46;18.42;;;5.30;;
28335;SDS011;15592;53.656;7.276;2023-04-15T09:40:13;19.25;;;4.93;;
28335;SDS011;15592;53.656;7.276;2023-04-15T09:42:54;11.77;;;4.78;;
28335;SDS011;15592;53.656;7.276;2023-04-15T09:45:20;19.45;;;5.35;;
28335;SDS011;15592;53.656;7.276;2023-04-15T09:47:46;14.23;;;5.10;;
28335;SDS011;15592;53.656;7.276;2023-04-15T09:50:12;13.77;;;4.40;;
28335;SDS011;15592;53.656;7.276;2023-04-15T09:52:42;15.93;;;5.15;;
28335;SDS011;15592;53.656;7.276;2023-04-15T09:55:08;16.38;;;5.07;;
28335;SDS011;15592;53.656;7.276;2023-04-15T09:57:35;15.23;;;4.90;;
28335;SDS011;15592;53.656;7.276;2023-04-15T10:00:05;11.15;;;4.60;;
28335;SDS011;15592;53.656;7.276;2023-04-15T10:02:33;16.60;;;4.82;;
28335;SDS011;15592;53.656;7.276;2023-04-15T10:05:00;18.15;;;5.90;;
28335;SDS011;15592;53.656;7.276;2023-04-15T10:07:26;19.08;;;6.47;;
28335;SDS011;15592;53.656;7.276;2023-04-15T10:09:52;15.75;;;5.57;;
28335;SDS011;15592;53.656;7.276;2023-04-15T10:12:18;20.88;;;5.40;;
28335;SDS011;15592;53.656;7.276;2023-04-15T10:14:47;10.55;;;4.75;;
28335;SDS011;15592;53.656;7.276;2023-04-15T10:17:16;16.23;;;4.65;;
28335;SDS011;15592;53.656;7.276;2023-04-15T10:19:46;15.27;;;4.07;;
28335;SDS011;15592;53.656;7.276;2023-04-15T10:22:12;11.45;;;4.00;;
28335;SDS011;15592;53.656;7.276;2023-04-15T10:24:38;18.20;;;4.13;;
28335;SDS011;15592;53.656;7.276;2023-04-15T10:29:40;17.73;;;3.35;;
28335;SDS011;15592;53.656;7.276;2023-04-15T10:32:06;13.55;;;3.33;;
28335;SDS011;15592;53.656;7.276;2023-04-15T10:34:33;17.48;;;3.67;;
28335;SDS011;15592;53.656;7.276;2023-04-15T10:37:03;14.68;;;3.78;;
28335;SDS011;15592;53.656;7.276;2023-04-15T10:42:11;22.00;;;4.25;;
28335;SDS011;15592;53.656;7.276;2023-04-15T10:44:42;17.13;;;3.42;;
28335;SDS011;15592;53.656;7.276;2023-04-15T10:47:16;14.52;;;3.85;;
28335;SDS011;15592;53.656;7.276;2023-04-15T10:49:46;14.82;;;3.83;;
28335;SDS011;15592;53.656;7.276;2023-04-15T10:52:14;20.00;;;4.03;;
28335;SDS011;15592;53.656;7.276;2023-04-15T10:54:41;15.73;;;3.75;;
28335;SDS011;15592;53.656;7.276;2023-04-15T10:57:08;20.30;;;4.80;;
28335;SDS011;15592;53.656;7.276;2023-04-15T11:02:41;21.40;;;4.35;;
28335;SDS011;15592;53.656;7.276;2023-04-15T11:05:16;21.13;;;5.07;;
28335;SDS011;15592;53.656;7.276;2023-04-15T11:13:01;15.35;;;4.07;;
28335;SDS011;15592;53.656;7.276;2023-04-15T11:15:33;18.30;;;3.35;;
28335;SDS011;15592;53.656;7.276;2023-04-15T11:20:48;19.20;;;4.63;;
28335;SDS011;15592;53.656;7.276;2023-04-15T11:26:10;23.02;;;4.30;;
28335;SDS011;15592;53.656;7.276;2023-04-15T11:28:37;17.48;;;3.63;;
28335;SDS011;15592;53.656;7.276;2023-04-15T11:31:12;18.88;;;4.18;;
28335;SDS011;15592;53.656;7.276;2023-04-15T11:33:52;18.45;;;4.07;;
28335;SDS011;15592;53.656;7.276;2023-04-15T11:36:23;12.55;;;3.70;;
28335;SDS011;15592;53.656;7.276;2023-04-15T11:38:53;15.95;;;4.15;;
28335;SDS011;15592;53.656;7.276;2023-04-15T11:41:20;16.38;;;3.90;;
28335;SDS011;15592;53.656;7.276;2023-04-15T11:43:46;14.23;;;4.13;;
28335;SDS011;15592;53.656;7.276;2023-04-15T11:46:12;22.13;;;4.80;;
28335;SDS011;15592;53.656;7.276;2023-04-15T11:48:40;22.05;;;4.43;;
28335;SDS011;15592;53.656;7.276;2023-04-15T11:51:09;23.60;;;4.43;;
28335;SDS011;15592;53.656;7.276;2023-04-15T11:56:19;29.80;;;4.53;;
28335;SDS011;15592;53.656;7.276;2023-04-15T11:58:53;16.02;;;4.32;;
28335;SDS011;15592;53.656;7.276;2023-04-15T12:01:29;22.23;;;4.18;;
28335;SDS011;15592;53.656;7.276;2023-04-15T12:04:09;22.00;;;4.57;;
28335;SDS011;15592;53.656;7.276;2023-04-15T12:06:36;26.08;;;5.15;;
28335;SDS011;15592;53.656;7.276;2023-04-15T12:16:38;21.75;;;5.38;;
28335;SDS011;15592;53.656;7.276;2023-04-15T12:19:08;16.52;;;4.53;;
28335;SDS011;15592;53.656;7.276;2023-04-15T12:21:36;16.10;;;4.55;;
28335;SDS011;15592;53.656;7.276;2023-04-15T12:24:07;17.27;;;4.55;;
28335;SDS011;15592;53.656;7.276;2023-04-15T12:26:45;20.10;;;4.22;;
28335;SDS011;15592;53.656;7.276;2023-04-15T12:29:25;22.30;;;5.32;;
28335;SDS011;15592;53.656;7.276;2023-04-15T12:34:35;18.60;;;4.93;;
28335;SDS011;15592;53.656;7.276;2023-04-15T12:37:02;27.45;;;5.63;;
28335;SDS011;15592;53.656;7.276;2023-04-15T12:39:31;20.90;;;4.80;;
28335;SDS011;15592;53.656;7.276;2023-04-15T12:41:59;25.13;;;5.50;;
28335;SDS011;15592;53.656;7.276;2023-04-15T12:44:25;20.30;;;4.63;;
28335;SDS011;15592;53.656;7.276;2023-04-15T12:46:52;23.27;;;5.82;;
28335;SDS011;15592;53.656;7.276;2023-04-15T12:49:18;15.00;;;5.35;;
28335;SDS011;15592;53.656;7.276;2023-04-15T12:51:45;20.67;;;5.47;;
28335;SDS011;15592;53.656;7.276;2023-04-15T12:54:12;25.17;;;6.47;;
28335;SDS011;15592;53.656;7.276;2023-04-15T12:56:38;18.65;;;5.25;;
28335;SDS011;15592;53.656;7.276;2023-04-15T12:59:04;18.73;;;5.97;;
28335;SDS011;15592;53.656;7.276;2023-04-15T13:01:29;20.60;;;5.97;;
28335;SDS011;15592;53.656;7.276;2023-04-15T13:03:55;22.13;;;5.40;;
28335;SDS011;15592;53.656;7.276;2023-04-15T13:06:21;19.15;;;5.63;;
28335;SDS011;15592;53.656;7.276;2023-04-15T13:08:48;21.33;;;5.45;;
28335;SDS011;15592;53.656;7.276;2023-04-15T13:11:13;22.33;;;5.53;;
28335;SDS011;15592;53.656;7.276;2023-04-15T13:13:39;30.10;;;6.15;;
28335;SDS011;15592;53.656;7.276;2023-04-15T13:16:05;25.52;;;6.32;;
28335;SDS011;15592;53.656;7.276;2023-04-15T13:18:30;19.55;;;5.43;;
28335;SDS011;15592;53.656;7.276;2023-04-15T13:20:58;20.08;;;5.93;;
28335;SDS011;15592;53.656;7.276;2023-04-15T13:23:25;19.45;;;5.65;;
28335;SDS011;15592;53.656;7.276;2023-04-15T13:25:50;34.25;;;6.50;;
28335;SDS011;15592;53.656;7.276;2023-04-15T13:28:16;27.83;;;6.45;;
28335;SDS011;15592;53.656;7.276;2023-04-15T13:30:42;27.67;;;5.97;;
28335;SDS011;15592;53.656;7.276;2023-04-15T13:33:08;22.52;;;6.13;;
28335;SDS011;15592;53.656;7.276;2023-04-15T13:35:33;21.50;;;6.68;;
28335;SDS011;15592;53.656;7.276;2023-04-15T13:37:59;20.65;;;6.68;;
28335;SDS011;15592;53.656;7.276;2023-04-15T13:40:25;24.70;;;7.88;;
28335;SDS011;15592;53.656;7.276;2023-04-15T13:42:51;31.88;;;8.63;;
28335;SDS011;15592;53.656;7.276;2023-04-15T13:45:17;25.90;;;7.15;;
28335;SDS011;15592;53.656;7.276;2023-04-15T13:47:43;24.50;;;7.40;;
28335;SDS011;15592;53.656;7.276;2023-04-15T13:50:09;31.75;;;7.63;;
28335;SDS011;15592;53.656;7.276;2023-04-15T13:52:35;27.23;;;7.65;;
28335;SDS011;15592;53.656;7.276;2023-04-15T13:55:01;27.75;;;7.22;;
28335;SDS011;15592;53.656;7.276;2023-04-15T13:57:27;24.10;;;7.18;;
28335;SDS011;15592;53.656;7.276;2023-04-15T13:59:53;25.45;;;7.80;;
28335;SDS011;15592;53.656;7.276;2023-04-15T14:02:19;31.00;;;6.95;;
28335;SDS011;15592;53.656;7.276;2023-04-15T14:04:47;31.95;;;8.20;;
28335;SDS011;15592;53.656;7.276;2023-04-15T14:07:12;32.95;;;8.40;;
28335;SDS011;15592;53.656;7.276;2023-04-15T14:09:38;31.55;;;8.65;;
28335;SDS011;15592;53.656;7.276;2023-04-15T14:12:04;29.38;;;8.95;;
28335;SDS011;15592;53.656;7.276;2023-04-15T14:14:29;32.30;;;9.80;;
28335;SDS011;15592;53.656;7.276;2023-04-15T14:16:58;34.03;;;8.45;;
28335;SDS011;15592;53.656;7.276;2023-04-15T14:19:24;36.17;;;8.68;;
28335;SDS011;15592;53.656;7.276;2023-04-15T14:21:50;29.98;;;9.07;;
28335;SDS011;15592;53.656;7.276;2023-04-15T14:24:16;39.83;;;9.57;;
28335;SDS011;15592;53.656;7.276;2023-04-15T14:26:42;39.13;;;9.20;;
28335;SDS011;15592;53.656;7.276;2023-04-15T14:29:08;34.75;;;9.00;;
28335;SDS011;15592;53.656;7.276;2023-04-15T14:31:34;34.22;;;9.82;;
28335;SDS011;15592;53.656;7.276;2023-04-15T14:34:00;39.47;;;9.85;;
28335;SDS011;15592;53.656;7.276;2023-04-15T14:36:26;40.67;;;10.57;;
28335;SDS011;15592;53.656;7.276;2023-04-15T14:38:51;51.92;;;11.23;;
28335;SDS011;15592;53.656;7.276;2023-04-15T14:41:17;42.00;;;11.60;;
28335;SDS011;15592;53.656;7.276;2023-04-15T14:43:42;34.45;;;10.50;;
28335;SDS011;15592;53.656;7.276;2023-04-15T14:46:09;40.47;;;12.45;;
28335;SDS011;15592;53.656;7.276;2023-04-15T14:48:35;46.13;;;12.10;;
28335;SDS011;15592;53.656;7.276;2023-04-15T14:51:01;42.00;;;10.77;;
28335;SDS011;15592;53.656;7.276;2023-04-15T14:53:27;45.28;;;12.73;;
28335;SDS011;15592;53.656;7.276;2023-04-15T14:55:52;45.90;;;12.50;;
28335;SDS011;15592;53.656;7.276;2023-04-15T14:58:18;45.63;;;13.38;;
28335;SDS011;15592;53.656;7.276;2023-04-15T15:00:43;46.67;;;13.38;;
28335;SDS011;15592;53.656;7.276;2023-04-15T15:03:10;53.47;;;14.68;;
28335;SDS011;15592;53.656;7.276;2023-04-15T15:05:43;56.25;;;15.30;;